sensor_id;sensor_type;location;lat;lon;timestamp;P1;durP1;ratioP1;P2;durP2;ratioP2
15595;SDS011;7898;48.658;9.068;2024-02-28T00:01:11;38.03;;;22.80;;
15595;SDS011;7898;48.658;9.068;2024-02-28T00:03:39;35.10;;;22.87;;
15595;SDS011;7898;48.658;9.068;2024-02-28T00:06:06;38.20;;;23.30;;
15595;SDS011;7898;48.658;9.068;2024-02-28T00:08:33;38.03;;;24.27;;
15595;SDS011;7898;48.658;9.068;2024-02-28T00:11:00;34.30;;;21.73;;
15595;SDS011;7898;48.658;9.068;2024-02-28T00:13:27;32.30;;;19.43;;
15595;SDS011;7898;48.658;9.068;2024-02-28T00:15:54;38.50;;;21.57;;
15595;SDS011;7898;48.658;9.068;2024-02-28T00:18:21;33.40;;;21.20;;
15595;SDS011;7898;48.658;9.068;2024-02-28T00:20:50;33.70;;;19.37;;
15595;SDS011;7898;48.658;9.068;2024-02-28T00:23:17;30.40;;;18.73;;
15595;SDS011;7898;48.658;9.068;2024-02-28T00:25:43;29.37;;;19.80;;
15595;SDS011;7898;48.658;9.068;2024-02-28T00:28:10;27.87;;;17.67;;
15595;SDS011;7898;48.658;9.068;2024-02-28T00:30:37;26.83;;;16.43;;
15595;SDS011;7898;48.658;9.068;2024-02-28T00:33:04;31.80;;;16.17;;
15595;SDS011;7898;48.658;9.068;2024-02-28T00:35:31;29.20;;;15.93;;
15595;SDS011;7898;48.658;9.068;2024-02-28T00:38:00;25.33;;;15.83;;
15595;SDS011;7898;48.658;9.068;2024-02-28T00:40:28;25.63;;;15.97;;
15595;SDS011;7898;48.658;9.068;2024-02-28T00:42:55;24.90;;;15.03;;
15595;SDS011;7898;48.658;9.068;2024-02-28T00:45:21;25.63;;;15.77;;
15595;SDS011;7898;48.658;9.068;2024-02-28T00:47:48;22.07;;;14.70;;
15595;SDS011;7898;48.658;9.068;2024-02-28T00:50:15;25.77;;;16.07;;
15595;SDS011;7898;48.658;9.068;2024-02-28T00:52:42;23.43;;;15.63;;
15595;SDS011;7898;48.658;9.068;2024-02-28T00:55:10;23.83;;;15.13;;
15595;SDS011;7898;48.658;9.068;2024-02-28T00:57:37;22.90;;;14.27;;
15595;SDS011;7898;48.658;9.068;2024-02-28T01:00:05;23.13;;;14.87;;
15595;SDS011;7898;48.658;9.068;2024-02-28T01:02:34;23.13;;;15.60;;
15595;SDS011;7898;48.658;9.068;2024-02-28T01:05:01;22.30;;;14.93;;
15595;SDS011;7898;48.658;9.068;2024-02-28T01:07:28;21.37;;;14.37;;
15595;SDS011;7898;48.658;9.068;2024-02-28T01:09:55;23.37;;;15.63;;
15595;SDS011;7898;48.658;9.068;2024-02-28T01:12:23;26.07;;;16.43;;
15595;SDS011;7898;48.658;9.068;2024-02-28T01:14:50;23.00;;;15.27;;
15595;SDS011;7898;48.658;9.068;2024-02-28T01:17:17;25.13;;;16.40;;
15595;SDS011;7898;48.658;9.068;2024-02-28T01:19:44;27.67;;;16.90;;
15595;SDS011;7898;48.658;9.068;2024-02-28T01:22:11;27.70;;;15.90;;
15595;SDS011;7898;48.658;9.068;2024-02-28T01:24:38;25.83;;;16.03;;
15595;SDS011;7898;48.658;9.068;2024-02-28T01:27:05;23.93;;;16.37;;
15595;SDS011;7898;48.658;9.068;2024-02-28T01:29:33;25.93;;;16.43;;
15595;SDS011;7898;48.658;9.068;2024-02-28T01:32:00;26.10;;;15.43;;
15595;SDS011;7898;48.658;9.068;2024-02-28T01:34:27;27.03;;;16.93;;
15595;SDS011;7898;48.658;9.068;2024-02-28T01:36:54;29.70;;;15.50;;
15595;SDS011;7898;48.658;9.068;2024-02-28T01:39:22;30.50;;;17.07;;
15595;SDS011;7898;48.658;9.068;2024-02-28T01:41:53;25.17;;;16.13;;
15595;SDS011;7898;48.658;9.068;2024-02-28T01:44:20;28.30;;;16.97;;
15595;SDS011;7898;48.658;9.068;2024-02-28T01:46:48;27.60;;;16.43;;
15595;SDS011;7898;48.658;9.068;2024-02-28T01:49:16;29.37;;;16.87;;
15595;SDS011;7898;48.658;9.068;2024-02-28T01:51:44;26.50;;;17.17;;
15595;SDS011;7898;48.658;9.068;2024-02-28T01:54:12;28.50;;;17.73;;
15595;SDS011;7898;48.658;9.068;2024-02-28T01:56:40;27.80;;;17.13;;
15595;SDS011;7898;48.658;9.068;2024-02-28T01:59:08;28.97;;;18.17;;
15595;SDS011;7898;48.658;9.068;2024-02-28T02:01:36;28.33;;;18.13;;
15595;SDS011;7898;48.658;9.068;2024-02-28T02:04:05;31.03;;;18.67;;
15595;SDS011;7898;48.658;9.068;2024-02-28T02:06:32;29.97;;;18.43;;
15595;SDS011;7898;48.658;9.068;2024-02-28T02:08:59;29.10;;;17.97;;
15595;SDS011;7898;48.658;9.068;2024-02-28T02:11:28;28.70;;;16.83;;
15595;SDS011;7898;48.658;9.068;2024-02-28T02:13:55;28.80;;;17.77;;
15595;SDS011;7898;48.658;9.068;2024-02-28T02:16:22;27.50;;;17.57;;
15595;SDS011;7898;48.658;9.068;2024-02-28T02:18:51;28.73;;;17.63;;
15595;SDS011;7898;48.658;9.068;2024-02-28T02:21:19;32.63;;;18.57;;
15595;SDS011;7898;48.658;9.068;2024-02-28T02:23:50;27.87;;;18.53;;
15595;SDS011;7898;48.658;9.068;2024-02-28T02:26:17;32.67;;;19.50;;
15595;SDS011;7898;48.658;9.068;2024-02-28T02:28:44;32.77;;;19.03;;
15595;SDS011;7898;48.658;9.068;2024-02-28T02:31:14;32.50;;;19.57;;
15595;SDS011;7898;48.658;9.068;2024-02-28T02:33:41;35.17;;;18.40;;
15595;SDS011;7898;48.658;9.068;2024-02-28T02:36:08;28.80;;;19.50;;
15595;SDS011;7898;48.658;9.068;2024-02-28T02:38:35;32.53;;;19.00;;
15595;SDS011;7898;48.658;9.068;2024-02-28T02:41:03;37.83;;;20.03;;
15595;SDS011;7898;48.658;9.068;2024-02-28T02:43:30;32.20;;;19.00;;
15595;SDS011;7898;48.658;9.068;2024-02-28T02:45:57;30.57;;;19.10;;
15595;SDS011;7898;48.658;9.068;2024-02-28T02:48:24;30.33;;;18.37;;
15595;SDS011;7898;48.658;9.068;2024-02-28T02:50:51;30.83;;;18.87;;
15595;SDS011;7898;48.658;9.068;2024-02-28T02:53:18;29.10;;;17.83;;
15595;SDS011;7898;48.658;9.068;2024-02-28T02:55:46;35.03;;;20.23;;
15595;SDS011;7898;48.658;9.068;2024-02-28T02:58:14;32.27;;;19.40;;
15595;SDS011;7898;48.658;9.068;2024-02-28T03:00:41;32.07;;;18.67;;
15595;SDS011;7898;48.658;9.068;2024-02-28T03:03:08;27.17;;;17.77;;
15595;SDS011;7898;48.658;9.068;2024-02-28T03:05:34;28.97;;;18.33;;
15595;SDS011;7898;48.658;9.068;2024-02-28T03:08:01;35.07;;;18.90;;
15595;SDS011;7898;48.658;9.068;2024-02-28T03:10:29;30.80;;;19.30;;
15595;SDS011;7898;48.658;9.068;2024-02-28T03:12:56;32.83;;;19.43;;
15595;SDS011;7898;48.658;9.068;2024-02-28T03:15:24;34.43;;;19.37;;
15595;SDS011;7898;48.658;9.068;2024-02-28T03:17:51;34.30;;;19.60;;
15595;SDS011;7898;48.658;9.068;2024-02-28T03:20:18;30.33;;;18.40;;
15595;SDS011;7898;48.658;9.068;2024-02-28T03:22:44;30.13;;;18.53;;
15595;SDS011;7898;48.658;9.068;2024-02-28T03:25:11;32.70;;;19.50;;
15595;SDS011;7898;48.658;9.068;2024-02-28T03:27:38;32.20;;;19.40;;
15595;SDS011;7898;48.658;9.068;2024-02-28T03:30:05;28.87;;;18.57;;
15595;SDS011;7898;48.658;9.068;2024-02-28T03:32:34;36.80;;;19.27;;
15595;SDS011;7898;48.658;9.068;2024-02-28T03:35:01;32.83;;;19.13;;
15595;SDS011;7898;48.658;9.068;2024-02-28T03:37:29;28.87;;;17.57;;
15595;SDS011;7898;48.658;9.068;2024-02-28T03:39:56;31.00;;;18.70;;
15595;SDS011;7898;48.658;9.068;2024-02-28T03:42:23;30.90;;;18.77;;
15595;SDS011;7898;48.658;9.068;2024-02-28T03:44:50;33.00;;;18.20;;
15595;SDS011;7898;48.658;9.068;2024-02-28T03:47:17;30.70;;;18.67;;
15595;SDS011;7898;48.658;9.068;2024-02-28T03:49:45;31.30;;;19.23;;
15595;SDS011;7898;48.658;9.068;2024-02-28T03:52:12;29.80;;;18.33;;
15595;SDS011;7898;48.658;9.068;2024-02-28T03:54:41;31.20;;;18.33;;
15595;SDS011;7898;48.658;9.068;2024-02-28T03:57:08;33.93;;;19.10;;
15595;SDS011;7898;48.658;9.068;2024-02-28T03:59:35;28.40;;;16.93;;
15595;SDS011;7898;48.658;9.068;2024-02-28T04:02:02;32.77;;;19.23;;
15595;SDS011;7898;48.658;9.068;2024-02-28T04:04:29;30.13;;;18.87;;
15595;SDS011;7898;48.658;9.068;2024-02-28T04:06:57;30.00;;;17.57;;
15595;SDS011;7898;48.658;9.068;2024-02-28T04:09:24;31.37;;;18.57;;
15595;SDS011;7898;48.658;9.068;2024-02-28T04:11:51;28.10;;;17.70;;
15595;SDS011;7898;48.658;9.068;2024-02-28T04:14:18;30.37;;;18.20;;
15595;SDS011;7898;48.658;9.068;2024-02-28T04:16:44;29.60;;;17.60;;
15595;SDS011;7898;48.658;9.068;2024-02-28T04:19:15;31.60;;;18.10;;
15595;SDS011;7898;48.658;9.068;2024-02-28T04:21:42;30.23;;;17.33;;
15595;SDS011;7898;48.658;9.068;2024-02-28T04:24:10;33.70;;;18.60;;
15595;SDS011;7898;48.658;9.068;2024-02-28T04:26:37;31.33;;;17.93;;
15595;SDS011;7898;48.658;9.068;2024-02-28T04:29:04;27.57;;;18.10;;
15595;SDS011;7898;48.658;9.068;2024-02-28T04:31:37;27.50;;;16.97;;
15595;SDS011;7898;48.658;9.068;2024-02-28T04:34:04;29.93;;;18.13;;
15595;SDS011;7898;48.658;9.068;2024-02-28T04:36:31;29.93;;;17.10;;
15595;SDS011;7898;48.658;9.068;2024-02-28T04:38:58;32.33;;;16.67;;
15595;SDS011;7898;48.658;9.068;2024-02-28T04:41:27;28.93;;;16.97;;
15595;SDS011;7898;48.658;9.068;2024-02-28T04:43:54;29.30;;;17.87;;
15595;SDS011;7898;48.658;9.068;2024-02-28T04:46:21;31.53;;;18.60;;
15595;SDS011;7898;48.658;9.068;2024-02-28T04:48:47;27.20;;;16.87;;
15595;SDS011;7898;48.658;9.068;2024-02-28T04:51:15;26.57;;;16.63;;
15595;SDS011;7898;48.658;9.068;2024-02-28T04:53:42;28.27;;;17.53;;
15595;SDS011;7898;48.658;9.068;2024-02-28T04:56:09;28.97;;;16.93;;
15595;SDS011;7898;48.658;9.068;2024-02-28T04:58:37;27.60;;;17.17;;
15595;SDS011;7898;48.658;9.068;2024-02-28T05:01:04;26.47;;;17.10;;
15595;SDS011;7898;48.658;9.068;2024-02-28T05:03:31;29.23;;;17.57;;
15595;SDS011;7898;48.658;9.068;2024-02-28T05:05:58;24.37;;;16.33;;
15595;SDS011;7898;48.658;9.068;2024-02-28T05:08:25;27.43;;;16.87;;
15595;SDS011;7898;48.658;9.068;2024-02-28T05:10:53;30.13;;;18.13;;
15595;SDS011;7898;48.658;9.068;2024-02-28T05:13:20;28.90;;;17.03;;
15595;SDS011;7898;48.658;9.068;2024-02-28T05:15:50;30.37;;;17.57;;
15595;SDS011;7898;48.658;9.068;2024-02-28T05:18:17;33.73;;;18.00;;
15595;SDS011;7898;48.658;9.068;2024-02-28T05:20:43;31.80;;;18.57;;
15595;SDS011;7898;48.658;9.068;2024-02-28T05:23:10;27.43;;;17.40;;
15595;SDS011;7898;48.658;9.068;2024-02-28T05:25:37;32.73;;;18.27;;
15595;SDS011;7898;48.658;9.068;2024-02-28T05:28:04;29.20;;;17.70;;
15595;SDS011;7898;48.658;9.068;2024-02-28T05:30:31;30.13;;;18.50;;
15595;SDS011;7898;48.658;9.068;2024-02-28T05:32:59;29.90;;;19.00;;
15595;SDS011;7898;48.658;9.068;2024-02-28T05:35:26;28.90;;;16.67;;
15595;SDS011;7898;48.658;9.068;2024-02-28T05:37:53;29.63;;;18.03;;
15595;SDS011;7898;48.658;9.068;2024-02-28T05:40:20;29.43;;;18.20;;
15595;SDS011;7898;48.658;9.068;2024-02-28T05:42:47;32.00;;;17.73;;
15595;SDS011;7898;48.658;9.068;2024-02-28T05:45:14;28.33;;;16.57;;
15595;SDS011;7898;48.658;9.068;2024-02-28T05:47:41;29.00;;;18.67;;
15595;SDS011;7898;48.658;9.068;2024-02-28T05:50:10;25.40;;;16.43;;
15595;SDS011;7898;48.658;9.068;2024-02-28T05:52:38;30.03;;;16.83;;
15595;SDS011;7898;48.658;9.068;2024-02-28T05:55:07;28.93;;;17.33;;
15595;SDS011;7898;48.658;9.068;2024-02-28T05:57:34;23.90;;;16.17;;
15595;SDS011;7898;48.658;9.068;2024-02-28T06:00:01;35.77;;;18.93;;
15595;SDS011;7898;48.658;9.068;2024-02-28T06:02:34;31.40;;;18.40;;
15595;SDS011;7898;48.658;9.068;2024-02-28T06:05:02;27.73;;;17.40;;
15595;SDS011;7898;48.658;9.068;2024-02-28T06:07:30;26.57;;;16.57;;
15595;SDS011;7898;48.658;9.068;2024-02-28T06:09:57;32.13;;;17.97;;
15595;SDS011;7898;48.658;9.068;2024-02-28T06:12:24;27.87;;;16.80;;
15595;SDS011;7898;48.658;9.068;2024-02-28T06:14:51;32.13;;;17.33;;
15595;SDS011;7898;48.658;9.068;2024-02-28T06:17:20;32.37;;;18.00;;
15595;SDS011;7898;48.658;9.068;2024-02-28T06:19:49;28.30;;;17.27;;
15595;SDS011;7898;48.658;9.068;2024-02-28T06:22:15;31.17;;;18.50;;
15595;SDS011;7898;48.658;9.068;2024-02-28T06:24:45;27.17;;;17.93;;
15595;SDS011;7898;48.658;9.068;2024-02-28T06:27:12;28.67;;;17.47;;
15595;SDS011;7898;48.658;9.068;2024-02-28T06:29:39;33.70;;;17.50;;
15595;SDS011;7898;48.658;9.068;2024-02-28T06:32:06;28.50;;;16.20;;
15595;SDS011;7898;48.658;9.068;2024-02-28T06:34:33;30.57;;;15.83;;
15595;SDS011;7898;48.658;9.068;2024-02-28T06:37:00;29.80;;;17.10;;
15595;SDS011;7898;48.658;9.068;2024-02-28T06:39:28;29.10;;;17.90;;
15595;SDS011;7898;48.658;9.068;2024-02-28T06:41:57;29.70;;;17.40;;
15595;SDS011;7898;48.658;9.068;2024-02-28T06:44:24;28.90;;;17.90;;
15595;SDS011;7898;48.658;9.068;2024-02-28T06:46:51;27.77;;;17.13;;
15595;SDS011;7898;48.658;9.068;2024-02-28T06:49:17;25.67;;;17.57;;
15595;SDS011;7898;48.658;9.068;2024-02-28T06:51:44;25.03;;;16.10;;
15595;SDS011;7898;48.658;9.068;2024-02-28T06:54:11;25.47;;;15.93;;
15595;SDS011;7898;48.658;9.068;2024-02-28T06:56:38;26.87;;;16.07;;
15595;SDS011;7898;48.658;9.068;2024-02-28T06:59:06;26.77;;;16.23;;
15595;SDS011;7898;48.658;9.068;2024-02-28T07:01:33;25.63;;;16.73;;
15595;SDS011;7898;48.658;9.068;2024-02-28T07:04:00;26.13;;;15.53;;
15595;SDS011;7898;48.658;9.068;2024-02-28T07:06:27;25.47;;;16.07;;
15595;SDS011;7898;48.658;9.068;2024-02-28T07:08:54;23.70;;;15.27;;
15595;SDS011;7898;48.658;9.068;2024-02-28T07:11:21;23.50;;;15.60;;
15595;SDS011;7898;48.658;9.068;2024-02-28T07:13:48;24.30;;;15.07;;
15595;SDS011;7898;48.658;9.068;2024-02-28T07:16:16;23.87;;;14.97;;
15595;SDS011;7898;48.658;9.068;2024-02-28T07:18:43;23.93;;;14.80;;
15595;SDS011;7898;48.658;9.068;2024-02-28T07:21:10;22.80;;;14.47;;
15595;SDS011;7898;48.658;9.068;2024-02-28T07:23:38;26.80;;;15.70;;
15595;SDS011;7898;48.658;9.068;2024-02-28T07:26:05;24.30;;;15.07;;
15595;SDS011;7898;48.658;9.068;2024-02-28T07:28:33;22.33;;;14.33;;
15595;SDS011;7898;48.658;9.068;2024-02-28T07:30:59;24.23;;;14.37;;
15595;SDS011;7898;48.658;9.068;2024-02-28T07:33:30;26.63;;;15.10;;
15595;SDS011;7898;48.658;9.068;2024-02-28T07:35:57;22.80;;;15.57;;
15595;SDS011;7898;48.658;9.068;2024-02-28T07:38:26;22.93;;;15.37;;
15595;SDS011;7898;48.658;9.068;2024-02-28T07:40:53;25.67;;;16.07;;
15595;SDS011;7898;48.658;9.068;2024-02-28T07:43:20;23.57;;;15.10;;
15595;SDS011;7898;48.658;9.068;2024-02-28T07:45:47;26.23;;;15.33;;
15595;SDS011;7898;48.658;9.068;2024-02-28T07:48:13;25.07;;;15.57;;
15595;SDS011;7898;48.658;9.068;2024-02-28T07:50:43;25.97;;;15.63;;
15595;SDS011;7898;48.658;9.068;2024-02-28T07:53:10;25.00;;;15.80;;
15595;SDS011;7898;48.658;9.068;2024-02-28T07:55:37;29.03;;;16.00;;
15595;SDS011;7898;48.658;9.068;2024-02-28T07:58:04;20.63;;;13.77;;
15595;SDS011;7898;48.658;9.068;2024-02-28T08:00:31;23.20;;;15.17;;
15595;SDS011;7898;48.658;9.068;2024-02-28T08:02:59;22.30;;;14.47;;
15595;SDS011;7898;48.658;9.068;2024-02-28T08:05:26;23.20;;;14.10;;
15595;SDS011;7898;48.658;9.068;2024-02-28T08:07:54;23.57;;;14.97;;
15595;SDS011;7898;48.658;9.068;2024-02-28T08:10:21;21.00;;;14.17;;
15595;SDS011;7898;48.658;9.068;2024-02-28T08:12:48;24.33;;;14.47;;
15595;SDS011;7898;48.658;9.068;2024-02-28T08:15:15;24.13;;;15.63;;
15595;SDS011;7898;48.658;9.068;2024-02-28T08:17:42;23.27;;;15.40;;
15595;SDS011;7898;48.658;9.068;2024-02-28T08:20:09;25.03;;;14.93;;
15595;SDS011;7898;48.658;9.068;2024-02-28T08:22:37;26.47;;;15.20;;
15595;SDS011;7898;48.658;9.068;2024-02-28T08:25:05;26.23;;;15.27;;
15595;SDS011;7898;48.658;9.068;2024-02-28T08:27:36;24.03;;;15.57;;
15595;SDS011;7898;48.658;9.068;2024-02-28T08:30:04;26.27;;;15.23;;
15595;SDS011;7898;48.658;9.068;2024-02-28T08:32:32;24.37;;;14.00;;
15595;SDS011;7898;48.658;9.068;2024-02-28T08:34:59;24.30;;;14.63;;
15595;SDS011;7898;48.658;9.068;2024-02-28T08:37:26;21.63;;;14.77;;
15595;SDS011;7898;48.658;9.068;2024-02-28T08:39:54;22.30;;;14.00;;
15595;SDS011;7898;48.658;9.068;2024-02-28T08:42:24;21.67;;;13.30;;
15595;SDS011;7898;48.658;9.068;2024-02-28T08:44:51;23.73;;;13.90;;
15595;SDS011;7898;48.658;9.068;2024-02-28T08:47:22;22.13;;;14.07;;
15595;SDS011;7898;48.658;9.068;2024-02-28T08:49:49;22.00;;;13.83;;
15595;SDS011;7898;48.658;9.068;2024-02-28T08:52:16;21.77;;;13.63;;
15595;SDS011;7898;48.658;9.068;2024-02-28T08:54:43;20.90;;;13.77;;
15595;SDS011;7898;48.658;9.068;2024-02-28T08:57:10;19.43;;;13.00;;
15595;SDS011;7898;48.658;9.068;2024-02-28T08:59:38;21.90;;;13.13;;
15595;SDS011;7898;48.658;9.068;2024-02-28T09:02:06;18.90;;;13.10;;
15595;SDS011;7898;48.658;9.068;2024-02-28T09:04:33;25.37;;;13.87;;
15595;SDS011;7898;48.658;9.068;2024-02-28T09:07:00;22.77;;;13.77;;
15595;SDS011;7898;48.658;9.068;2024-02-28T09:09:27;28.33;;;14.17;;
15595;SDS011;7898;48.658;9.068;2024-02-28T09:11:57;20.63;;;13.47;;
15595;SDS011;7898;48.658;9.068;2024-02-28T09:14:24;20.10;;;13.07;;
15595;SDS011;7898;48.658;9.068;2024-02-28T09:16:52;17.80;;;12.93;;
15595;SDS011;7898;48.658;9.068;2024-02-28T09:19:21;20.53;;;12.20;;
15595;SDS011;7898;48.658;9.068;2024-02-28T09:21:48;19.73;;;12.23;;
15595;SDS011;7898;48.658;9.068;2024-02-28T09:24:15;21.40;;;13.23;;
15595;SDS011;7898;48.658;9.068;2024-02-28T09:26:42;21.13;;;13.23;;
15595;SDS011;7898;48.658;9.068;2024-02-28T09:29:08;18.33;;;11.77;;
15595;SDS011;7898;48.658;9.068;2024-02-28T09:31:35;16.53;;;11.70;;
15595;SDS011;7898;48.658;9.068;2024-02-28T09:34:04;17.10;;;11.77;;
15595;SDS011;7898;48.658;9.068;2024-02-28T09:36:39;16.27;;;11.33;;
15595;SDS011;7898;48.658;9.068;2024-02-28T09:39:07;17.50;;;11.37;;
15595;SDS011;7898;48.658;9.068;2024-02-28T09:41:34;17.93;;;11.70;;
15595;SDS011;7898;48.658;9.068;2024-02-28T09:44:01;16.73;;;11.80;;
15595;SDS011;7898;48.658;9.068;2024-02-28T09:46:29;17.60;;;11.53;;
15595;SDS011;7898;48.658;9.068;2024-02-28T09:48:56;16.07;;;12.03;;
15595;SDS011;7898;48.658;9.068;2024-02-28T09:51:25;17.07;;;11.43;;
15595;SDS011;7898;48.658;9.068;2024-02-28T09:53:52;16.00;;;10.67;;
15595;SDS011;7898;48.658;9.068;2024-02-28T09:56:19;14.40;;;10.10;;
15595;SDS011;7898;48.658;9.068;2024-02-28T09:58:48;17.00;;;11.50;;
15595;SDS011;7898;48.658;9.068;2024-02-28T10:01:16;14.63;;;10.73;;
15595;SDS011;7898;48.658;9.068;2024-02-28T10:03:45;16.00;;;11.50;;
15595;SDS011;7898;48.658;9.068;2024-02-28T10:06:15;17.67;;;10.80;;
15595;SDS011;7898;48.658;9.068;2024-02-28T10:08:43;16.60;;;11.27;;
15595;SDS011;7898;48.658;9.068;2024-02-28T10:11:12;18.10;;;11.43;;
15595;SDS011;7898;48.658;9.068;2024-02-28T10:13:43;17.80;;;10.80;;
15595;SDS011;7898;48.658;9.068;2024-02-28T10:16:10;17.30;;;11.70;;
15595;SDS011;7898;48.658;9.068;2024-02-28T10:18:37;17.33;;;11.03;;
15595;SDS011;7898;48.658;9.068;2024-02-28T10:21:04;16.53;;;11.30;;
15595;SDS011;7898;48.658;9.068;2024-02-28T10:23:31;17.93;;;12.43;;
15595;SDS011;7898;48.658;9.068;2024-02-28T10:26:00;16.10;;;11.40;;
15595;SDS011;7898;48.658;9.068;2024-02-28T10:28:27;16.50;;;11.73;;
15595;SDS011;7898;48.658;9.068;2024-02-28T10:30:54;14.90;;;10.50;;
15595;SDS011;7898;48.658;9.068;2024-02-28T10:33:21;14.80;;;10.53;;
15595;SDS011;7898;48.658;9.068;2024-02-28T10:35:53;16.60;;;10.93;;
15595;SDS011;7898;48.658;9.068;2024-02-28T10:38:21;18.00;;;11.40;;
15595;SDS011;7898;48.658;9.068;2024-02-28T10:40:48;18.33;;;12.10;;
15595;SDS011;7898;48.658;9.068;2024-02-28T10:43:18;21.83;;;12.20;;
15595;SDS011;7898;48.658;9.068;2024-02-28T10:45:46;17.53;;;11.97;;
15595;SDS011;7898;48.658;9.068;2024-02-28T10:48:14;16.43;;;11.43;;
15595;SDS011;7898;48.658;9.068;2024-02-28T10:50:41;18.07;;;11.83;;
15595;SDS011;7898;48.658;9.068;2024-02-28T10:53:11;15.87;;;11.47;;
15595;SDS011;7898;48.658;9.068;2024-02-28T10:55:41;15.63;;;11.87;;
15595;SDS011;7898;48.658;9.068;2024-02-28T10:58:09;17.93;;;11.47;;
15595;SDS011;7898;48.658;9.068;2024-02-28T11:00:38;19.07;;;12.57;;
15595;SDS011;7898;48.658;9.068;2024-02-28T11:03:07;16.70;;;11.60;;
15595;SDS011;7898;48.658;9.068;2024-02-28T11:05:36;16.37;;;12.17;;
15595;SDS011;7898;48.658;9.068;2024-02-28T11:08:05;17.77;;;11.80;;
15595;SDS011;7898;48.658;9.068;2024-02-28T11:10:34;15.23;;;11.57;;
15595;SDS011;7898;48.658;9.068;2024-02-28T11:13:01;19.47;;;11.47;;
15595;SDS011;7898;48.658;9.068;2024-02-28T11:15:28;16.13;;;11.87;;
15595;SDS011;7898;48.658;9.068;2024-02-28T11:18:06;17.57;;;11.50;;
15595;SDS011;7898;48.658;9.068;2024-02-28T11:20:34;14.80;;;11.20;;
15595;SDS011;7898;48.658;9.068;2024-02-28T11:23:01;16.70;;;11.63;;
15595;SDS011;7898;48.658;9.068;2024-02-28T11:25:28;19.50;;;11.83;;
15595;SDS011;7898;48.658;9.068;2024-02-28T11:27:55;20.73;;;11.97;;
15595;SDS011;7898;48.658;9.068;2024-02-28T11:30:22;17.40;;;12.13;;
15595;SDS011;7898;48.658;9.068;2024-02-28T11:32:51;17.83;;;12.07;;
15595;SDS011;7898;48.658;9.068;2024-02-28T11:35:20;17.33;;;11.50;;
15595;SDS011;7898;48.658;9.068;2024-02-28T11:37:47;17.53;;;12.00;;
15595;SDS011;7898;48.658;9.068;2024-02-28T11:40:15;16.17;;;11.40;;
15595;SDS011;7898;48.658;9.068;2024-02-28T11:42:42;16.60;;;11.50;;
15595;SDS011;7898;48.658;9.068;2024-02-28T11:45:09;20.13;;;12.73;;
15595;SDS011;7898;48.658;9.068;2024-02-28T11:47:37;16.57;;;11.10;;
15595;SDS011;7898;48.658;9.068;2024-02-28T11:50:04;18.97;;;13.43;;
15595;SDS011;7898;48.658;9.068;2024-02-28T11:52:33;20.07;;;12.37;;
15595;SDS011;7898;48.658;9.068;2024-02-28T11:55:00;18.70;;;12.20;;
15595;SDS011;7898;48.658;9.068;2024-02-28T11:57:27;19.90;;;13.27;;
15595;SDS011;7898;48.658;9.068;2024-02-28T11:59:58;18.60;;;13.33;;
15595;SDS011;7898;48.658;9.068;2024-02-28T12:02:30;22.90;;;13.67;;
15595;SDS011;7898;48.658;9.068;2024-02-28T12:05:00;20.60;;;13.37;;
15595;SDS011;7898;48.658;9.068;2024-02-28T12:07:29;21.60;;;13.80;;
15595;SDS011;7898;48.658;9.068;2024-02-28T12:09:57;22.07;;;14.07;;
15595;SDS011;7898;48.658;9.068;2024-02-28T12:12:24;22.97;;;14.23;;
15595;SDS011;7898;48.658;9.068;2024-02-28T12:14:51;20.90;;;14.50;;
15595;SDS011;7898;48.658;9.068;2024-02-28T12:17:18;23.73;;;15.77;;
15595;SDS011;7898;48.658;9.068;2024-02-28T12:19:45;20.73;;;14.07;;
15595;SDS011;7898;48.658;9.068;2024-02-28T12:22:11;22.40;;;14.03;;
15595;SDS011;7898;48.658;9.068;2024-02-28T12:24:38;25.27;;;14.20;;
15595;SDS011;7898;48.658;9.068;2024-02-28T12:27:08;23.50;;;14.93;;
15595;SDS011;7898;48.658;9.068;2024-02-28T12:29:35;20.83;;;13.73;;
15595;SDS011;7898;48.658;9.068;2024-02-28T12:32:02;23.33;;;14.40;;
15595;SDS011;7898;48.658;9.068;2024-02-28T12:34:29;25.17;;;15.57;;
15595;SDS011;7898;48.658;9.068;2024-02-28T12:36:56;26.57;;;15.70;;
15595;SDS011;7898;48.658;9.068;2024-02-28T12:39:24;22.50;;;14.47;;
15595;SDS011;7898;48.658;9.068;2024-02-28T12:41:52;21.80;;;14.27;;
15595;SDS011;7898;48.658;9.068;2024-02-28T12:44:20;20.97;;;14.07;;
15595;SDS011;7898;48.658;9.068;2024-02-28T12:46:47;21.50;;;13.57;;
15595;SDS011;7898;48.658;9.068;2024-02-28T12:49:14;19.50;;;13.00;;
15595;SDS011;7898;48.658;9.068;2024-02-28T12:51:42;19.47;;;13.13;;
15595;SDS011;7898;48.658;9.068;2024-02-28T12:54:11;19.83;;;13.17;;
15595;SDS011;7898;48.658;9.068;2024-02-28T12:56:39;21.40;;;13.27;;
15595;SDS011;7898;48.658;9.068;2024-02-28T12:59:08;19.60;;;13.30;;
15595;SDS011;7898;48.658;9.068;2024-02-28T13:01:36;21.87;;;14.27;;
15595;SDS011;7898;48.658;9.068;2024-02-28T13:04:03;26.00;;;15.17;;
15595;SDS011;7898;48.658;9.068;2024-02-28T13:06:31;23.47;;;15.37;;
15595;SDS011;7898;48.658;9.068;2024-02-28T13:08:58;22.30;;;15.23;;
15595;SDS011;7898;48.658;9.068;2024-02-28T13:11:24;24.47;;;14.63;;
15595;SDS011;7898;48.658;9.068;2024-02-28T13:13:52;22.67;;;15.10;;
15595;SDS011;7898;48.658;9.068;2024-02-28T13:16:19;24.53;;;15.57;;
15595;SDS011;7898;48.658;9.068;2024-02-28T13:18:48;21.37;;;14.07;;
15595;SDS011;7898;48.658;9.068;2024-02-28T13:21:15;23.93;;;14.67;;
15595;SDS011;7898;48.658;9.068;2024-02-28T13:23:42;21.43;;;14.83;;
15595;SDS011;7898;48.658;9.068;2024-02-28T13:26:08;23.30;;;14.63;;
15595;SDS011;7898;48.658;9.068;2024-02-28T13:28:42;24.23;;;15.67;;
15595;SDS011;7898;48.658;9.068;2024-02-28T13:31:09;22.60;;;14.80;;
15595;SDS011;7898;48.658;9.068;2024-02-28T13:33:36;20.83;;;14.00;;
15595;SDS011;7898;48.658;9.068;2024-02-28T13:36:05;24.83;;;15.47;;
15595;SDS011;7898;48.658;9.068;2024-02-28T13:38:33;22.60;;;14.70;;
15595;SDS011;7898;48.658;9.068;2024-02-28T13:41:00;24.20;;;14.80;;
15595;SDS011;7898;48.658;9.068;2024-02-28T13:43:27;24.20;;;14.77;;
15595;SDS011;7898;48.658;9.068;2024-02-28T13:45:54;23.80;;;15.20;;
15595;SDS011;7898;48.658;9.068;2024-02-28T13:48:25;24.53;;;14.73;;
15595;SDS011;7898;48.658;9.068;2024-02-28T13:50:53;23.20;;;14.30;;
15595;SDS011;7898;48.658;9.068;2024-02-28T13:53:22;22.27;;;13.90;;
15595;SDS011;7898;48.658;9.068;2024-02-28T13:55:49;21.23;;;14.33;;
15595;SDS011;7898;48.658;9.068;2024-02-28T13:58:17;21.80;;;14.13;;
15595;SDS011;7898;48.658;9.068;2024-02-28T14:00:44;23.23;;;14.13;;
15595;SDS011;7898;48.658;9.068;2024-02-28T14:03:12;22.87;;;14.17;;
15595;SDS011;7898;48.658;9.068;2024-02-28T14:05:39;26.30;;;15.43;;
15595;SDS011;7898;48.658;9.068;2024-02-28T14:08:06;22.33;;;14.47;;
15595;SDS011;7898;48.658;9.068;2024-02-28T14:10:35;20.83;;;14.03;;
15595;SDS011;7898;48.658;9.068;2024-02-28T14:13:02;23.53;;;14.33;;
15595;SDS011;7898;48.658;9.068;2024-02-28T14:15:29;22.97;;;14.20;;
15595;SDS011;7898;48.658;9.068;2024-02-28T14:17:56;23.63;;;14.47;;
15595;SDS011;7898;48.658;9.068;2024-02-28T14:20:23;22.63;;;14.53;;
15595;SDS011;7898;48.658;9.068;2024-02-28T14:22:51;21.17;;;13.70;;
15595;SDS011;7898;48.658;9.068;2024-02-28T14:25:18;21.20;;;13.63;;
15595;SDS011;7898;48.658;9.068;2024-02-28T14:27:47;24.77;;;15.43;;
15595;SDS011;7898;48.658;9.068;2024-02-28T14:30:14;25.43;;;14.93;;
15595;SDS011;7898;48.658;9.068;2024-02-28T14:32:42;23.80;;;15.10;;
15595;SDS011;7898;48.658;9.068;2024-02-28T14:35:10;25.20;;;14.30;;